createdAt,value
2017-06-27T07:08:03.539Z,296
2017-06-27T07:09:04.901Z,296
2017-06-27T07:13:06.557Z,292
2017-06-27T07:14:07.928Z,292
2017-06-27T07:18:09.596Z,304
2017-06-27T07:19:10.969Z,312
2017-06-27T07:23:13.914Z,328
2017-06-27T07:24:14.755Z,332
2017-06-27T07:27:00.226Z,340
2017-06-27T07:28:02.229Z,340
2017-06-27T07:32:04.100Z,352
2017-06-27T07:33:05.464Z,352
2017-06-27T07:34:27.575Z,352
2017-06-27T07:35:28.950Z,352
2017-06-27T07:39:30.959Z,348
2017-06-27T07:40:33.044Z,348
2017-06-27T07:44:35.000Z,344
2017-06-27T07:45:36.370Z,340
2017-06-27T07:49:38.572Z,336
2017-06-27T07:50:39.948Z,340
2017-06-27T07:54:02.087Z,340
2017-06-27T07:55:03.455Z,340
2017-06-27T07:56:04.837Z,340
2017-06-27T07:57:06.229Z,340
2017-06-27T07:58:09.319Z,340
2017-06-27T07:59:10.694Z,332
2017-06-27T08:00:12.069Z,332
2017-06-27T08:01:13.461Z,328
2017-06-27T08:02:14.833Z,328
2017-06-27T08:03:16.212Z,324
2017-06-27T08:04:18.301Z,320
2017-06-27T08:05:20.453Z,272
2017-06-27T08:06:21.896Z,316
2017-06-27T08:07:23.272Z,312
2017-06-27T08:08:24.643Z,312
2017-06-27T08:09:26.811Z,308
2017-06-27T08:10:28.184Z,308
2017-06-27T08:11:29.559Z,308
2017-06-27T08:12:31.801Z,304
2017-06-27T08:13:33.824Z,304
2017-06-27T08:14:35.201Z,300
2017-06-27T08:15:36.642Z,300
2017-06-27T08:16:38.046Z,304
2017-06-27T08:17:39.455Z,304
2017-06-27T08:18:40.827Z,308
2017-06-27T08:19:42.197Z,312
2017-06-27T08:20:44.281Z,316
2017-06-27T08:21:45.677Z,316
2017-06-27T08:22:47.033Z,324
2017-06-27T08:23:48.412Z,328
2017-06-27T08:24:49.784Z,332
2017-06-27T08:25:51.160Z,332
2017-06-27T08:26:52.534Z,340
2017-06-27T08:27:53.906Z,344
2017-06-27T08:28:55.282Z,352
2017-06-27T08:29:56.660Z,352
2017-06-27T08:30:58.026Z,352
2017-06-27T08:31:59.402Z,356
2017-06-27T08:33:00.777Z,352
2017-06-27T08:34:02.892Z,348
2017-06-27T08:35:04.270Z,344
2017-06-27T08:36:05.639Z,348
2017-06-27T08:37:07.011Z,340
2017-06-27T08:38:08.385Z,340
2017-06-27T08:39:09.757Z,336
2017-06-27T08:40:11.133Z,340
2017-06-27T08:41:13.303Z,348
2017-06-27T08:42:14.675Z,348
2017-06-27T08:43:16.572Z,348
2017-06-27T08:44:17.961Z,352
2017-06-27T08:45:19.995Z,352
2017-06-27T08:46:22.147Z,352
2017-06-27T08:47:22.697Z,356
2017-06-27T08:48:25.581Z,352
2017-06-27T08:49:26.957Z,356
2017-06-27T08:50:28.995Z,360
2017-06-27T08:51:30.374Z,364
2017-06-27T08:52:31.743Z,368
2017-06-27T08:53:35.802Z,376
2017-06-27T08:54:37.180Z,524
2017-06-27T08:55:38.550Z,584
2017-06-27T08:56:40.577Z,664
2017-06-27T08:57:41.954Z,708
2017-06-27T08:58:43.337Z,724
2017-06-27T08:59:44.721Z,736
2017-06-27T09:00:46.098Z,744
2017-06-27T09:01:47.468Z,756
2017-06-27T09:02:48.859Z,768
2017-06-27T09:03:50.235Z,780
2017-06-27T09:04:51.617Z,788
2017-06-27T09:05:52.997Z,804
2017-06-27T09:06:55.158Z,816
2017-06-27T09:07:56.536Z,828
2017-06-27T09:08:57.909Z,832
2017-06-27T09:09:59.286Z,836
2017-06-27T09:11:00.656Z,840
2017-06-27T09:12:02.754Z,844
2017-06-27T09:13:04.126Z,844
2017-06-27T09:14:05.498Z,844
2017-06-27T09:15:06.881Z,840
2017-06-27T09:16:08.251Z,836
2017-06-27T09:17:09.626Z,840
2017-06-27T09:18:11.005Z,832
2017-06-27T09:19:12.382Z,836
2017-06-27T09:20:13.767Z,832
2017-06-27T09:21:16.687Z,832
2017-06-27T09:22:19.565Z,832
2017-06-27T09:23:20.939Z,836
2017-06-27T09:24:22.316Z,840
2017-06-27T09:25:23.689Z,840
2017-06-27T09:26:25.062Z,840
2017-06-27T09:27:26.439Z,844
2017-06-27T09:28:27.813Z,848
2017-06-27T09:29:29.868Z,848
2017-06-27T09:30:31.262Z,844
2017-06-27T09:31:32.637Z,840
2017-06-27T09:32:34.015Z,844
2017-06-27T09:33:35.389Z,844
2017-06-27T09:34:36.762Z,844
2017-06-27T09:35:38.165Z,840
2017-06-27T09:36:39.540Z,844
2017-06-27T09:37:40.916Z,844
2017-06-27T09:38:42.289Z,844
2017-06-27T09:39:43.671Z,852
2017-06-27T09:40:45.051Z,852
2017-06-27T09:41:46.423Z,856
2017-06-27T09:42:47.806Z,860
2017-06-27T09:43:49.189Z,860
2017-06-27T09:44:50.564Z,872
2017-06-27T09:45:51.933Z,872
2017-06-27T09:46:53.972Z,876
2017-06-27T09:47:54.652Z,880
2017-06-27T09:48:56.027Z,880
2017-06-27T09:49:57.410Z,888
2017-06-27T09:50:58.781Z,892
2017-06-27T09:52:00.972Z,892
2017-06-27T09:53:02.975Z,892
2017-06-27T09:54:03.727Z,892
2017-06-27T09:55:05.161Z,884
2017-06-27T09:56:06.540Z,880
2017-06-27T09:57:07.909Z,872
2017-06-27T09:58:10.253Z,868
2017-06-27T09:59:11.746Z,856
2017-06-27T10:00:13.125Z,844
2017-06-27T10:01:14.502Z,836
2017-06-27T10:02:15.882Z,832
2017-06-27T10:03:17.266Z,824
2017-06-27T10:04:18.640Z,820
2017-06-27T10:05:20.050Z,812
2017-06-27T10:06:21.787Z,784
2017-06-27T10:07:25.169Z,808
2017-06-27T10:08:26.547Z,808
2017-06-27T10:09:27.917Z,804
2017-06-27T10:10:29.301Z,520
2017-06-27T10:11:32.076Z,520
2017-06-27T10:12:33.456Z,516
2017-06-27T10:13:36.416Z,516
2017-06-27T10:14:41.668Z,524
2017-06-27T10:15:48.534Z,528
2017-06-27T10:16:50.516Z,536
2017-06-27T10:17:52.502Z,548
2017-06-27T10:18:54.477Z,556
2017-06-27T10:19:58.683Z,568
2017-06-27T10:21:01.686Z,576
2017-06-27T10:22:04.679Z,576
2017-06-27T10:23:07.667Z,580
2017-06-27T10:24:10.658Z,588
2017-06-27T10:25:13.639Z,588
2017-06-27T10:26:15.562Z,592
2017-06-27T10:27:18.692Z,588
2017-06-27T10:28:23.248Z,588
2017-06-27T10:29:24.624Z,588
2017-06-27T10:30:25.996Z,592
2017-06-27T10:31:27.374Z,592
2017-06-27T10:32:28.753Z,596
2017-06-27T10:33:30.117Z,596
2017-06-27T10:34:31.498Z,600
2017-06-27T10:35:32.874Z,604
2017-06-27T10:36:34.249Z,612
2017-06-27T10:37:35.615Z,608
2017-06-27T10:38:36.992Z,604
2017-06-27T10:39:38.369Z,596
2017-06-27T10:40:40.240Z,592
2017-06-27T10:41:41.613Z,592
2017-06-27T10:42:42.984Z,592
2017-06-27T10:43:44.369Z,596
2017-06-27T10:44:45.753Z,600
2017-06-27T10:45:47.127Z,600
2017-06-27T10:46:48.502Z,600
2017-06-27T10:47:49.884Z,596
2017-06-27T10:48:52.140Z,596
2017-06-27T10:49:53.511Z,592
2017-06-27T10:50:54.889Z,592
2017-06-27T10:51:56.264Z,588
2017-06-27T10:52:57.639Z,588
2017-06-27T10:53:59.018Z,580
2017-06-27T10:55:00.393Z,572
2017-06-27T10:56:01.763Z,568
2017-06-27T10:57:03.144Z,556
2017-06-27T10:58:04.518Z,552
2017-06-27T10:59:06.588Z,540
2017-06-27T11:00:07.224Z,536
2017-06-27T11:01:08.597Z,528
2017-06-27T11:02:09.976Z,520
2017-06-27T11:03:11.351Z,520
2017-06-27T11:04:14.189Z,520
2017-06-27T11:05:15.566Z,528
2017-06-27T11:06:16.939Z,528
2017-06-27T11:07:19.226Z,540
2017-06-27T11:08:20.607Z,544
2017-06-27T11:09:21.975Z,556
2017-06-27T11:10:23.354Z,556
2017-06-27T11:11:24.741Z,560
2017-06-27T11:12:26.134Z,564
2017-06-27T11:13:27.513Z,572
2017-06-27T11:14:28.892Z,588
2017-06-27T11:15:30.276Z,612
2017-06-27T11:16:31.652Z,628
2017-06-27T11:17:33.030Z,640
2017-06-27T11:18:34.406Z,656
2017-06-27T11:19:35.783Z,672
2017-06-27T11:20:37.163Z,680
2017-06-27T11:21:38.535Z,688
2017-06-27T11:22:39.918Z,696
2017-06-27T11:23:41.304Z,700
2017-06-27T11:24:45.726Z,708
2017-06-27T11:25:47.102Z,728
2017-06-27T11:26:48.487Z,720
2017-06-27T11:27:49.868Z,708
2017-06-27T11:28:51.250Z,716
2017-06-27T11:29:52.622Z,716
2017-06-27T11:30:54.000Z,704
2017-06-27T11:31:55.374Z,700
2017-06-27T11:32:56.750Z,688
2017-06-27T11:33:58.125Z,680
2017-06-27T11:34:59.500Z,680
2017-06-27T11:36:00.882Z,676
2017-06-27T11:37:02.261Z,672
2017-06-27T11:38:03.637Z,664
2017-06-27T11:39:05.022Z,656
2017-06-27T11:40:06.397Z,656
2017-06-27T11:41:07.866Z,656
2017-06-27T11:42:09.265Z,656
2017-06-27T11:43:10.636Z,656
2017-06-27T11:44:12.012Z,660
2017-06-27T11:45:13.433Z,660
2017-06-27T11:46:14.822Z,668
2017-06-27T11:47:16.201Z,672
2017-06-27T11:48:17.584Z,668
2017-06-27T11:49:18.962Z,652
2017-06-27T11:50:20.337Z,644
2017-06-27T11:51:21.716Z,636
2017-06-27T11:52:23.101Z,620
2017-06-27T11:53:28.315Z,604
2017-06-27T11:54:32.859Z,596
2017-06-27T11:55:35.548Z,596
2017-06-27T11:56:36.954Z,592
2017-06-27T11:57:44.543Z,576
2017-06-27T11:58:45.917Z,584
2017-06-27T11:59:47.293Z,584
2017-06-27T12:00:48.682Z,580
2017-06-27T12:01:50.069Z,576
2017-06-27T12:02:52.034Z,564
2017-06-27T12:03:53.423Z,548
2017-06-27T12:04:54.803Z,524
2017-06-27T12:05:56.187Z,500
2017-06-27T12:06:57.594Z,472
2017-06-27T12:07:59.045Z,448
2017-06-27T12:09:00.436Z,424
2017-06-27T12:10:01.815Z,404
2017-06-27T12:11:03.196Z,392
2017-06-27T12:12:05.973Z,384
2017-06-27T12:13:07.353Z,380
2017-06-27T12:14:09.444Z,380
2017-06-27T12:15:11.673Z,376
2017-06-27T12:16:13.049Z,372
2017-06-27T12:17:15.152Z,368
2017-06-27T12:18:16.532Z,356
2017-06-27T12:19:17.937Z,348
2017-06-27T12:20:20.176Z,340
2017-06-27T12:21:21.552Z,332
2017-06-27T12:22:22.928Z,324
2017-06-27T12:23:24.311Z,312
2017-06-27T12:24:25.689Z,308
2017-06-27T12:25:27.057Z,304
2017-06-27T12:26:28.432Z,296
2017-06-27T12:27:29.814Z,292
2017-06-27T12:28:31.190Z,288
2017-06-27T12:29:32.563Z,284
2017-06-27T12:30:33.942Z,276
2017-06-27T12:31:35.316Z,268
2017-06-27T12:32:36.698Z,264
2017-06-27T12:33:38.083Z,264
2017-06-27T12:34:39.449Z,260
2017-06-27T12:35:40.818Z,256
2017-06-27T12:36:42.197Z,252
2017-06-27T12:37:43.908Z,244
2017-06-27T12:38:45.288Z,240
2017-06-27T12:39:46.660Z,236
2017-06-27T12:40:48.040Z,228
2017-06-27T12:41:49.420Z,228
2017-06-27T12:42:50.793Z,220
2017-06-27T12:43:52.167Z,216
2017-06-27T12:44:53.543Z,220
2017-06-27T12:45:54.917Z,216
2017-06-27T12:46:56.295Z,216
2017-06-27T12:47:58.386Z,220
2017-06-27T12:48:59.759Z,220
2017-06-27T12:50:01.738Z,224
2017-06-27T12:51:03.135Z,232
2017-06-27T12:52:04.509Z,240
2017-06-27T12:53:05.885Z,244
2017-06-27T12:54:07.260Z,244
2017-06-27T12:55:08.644Z,244
2017-06-27T12:56:10.032Z,240
2017-06-27T12:57:11.430Z,232
2017-06-27T12:58:12.789Z,220
2017-06-27T12:59:14.166Z,212
2017-06-27T13:00:15.550Z,204
2017-06-27T13:01:16.915Z,196
2017-06-27T13:02:18.289Z,188
2017-06-27T13:03:19.678Z,188
2017-06-27T13:04:21.046Z,188
2017-06-27T13:05:22.422Z,188
2017-06-27T13:06:23.800Z,188
2017-06-27T13:07:25.840Z,188
2017-06-27T13:08:27.226Z,188
2017-06-27T13:09:28.602Z,188
2017-06-27T13:10:29.973Z,188
2017-06-27T13:11:31.377Z,188
2017-06-27T13:12:32.732Z,188
2017-06-27T13:13:34.948Z,192
2017-06-27T13:14:36.323Z,200
2017-06-27T13:15:37.699Z,204
2017-06-27T13:16:39.073Z,216
2017-06-27T13:17:40.449Z,228
2017-06-27T13:18:41.830Z,244
2017-06-27T13:19:43.205Z,260
2017-06-27T13:20:44.578Z,272
2017-06-27T13:21:45.958Z,276
2017-06-27T13:22:47.333Z,288
2017-06-27T13:23:48.711Z,296
2017-06-27T13:24:50.083Z,308
2017-06-27T13:25:51.460Z,316
2017-06-27T13:26:52.835Z,316
2017-06-27T13:27:54.214Z,324
2017-06-27T13:28:55.587Z,320
2017-06-27T13:29:56.962Z,320
2017-06-27T13:30:58.349Z,312
2017-06-27T13:32:00.535Z,304
2017-06-27T13:33:01.915Z,304
2017-06-27T13:34:03.286Z,300
2017-06-27T13:35:04.660Z,300
2017-06-27T13:36:06.034Z,300
2017-06-27T13:37:10.499Z,300
2017-06-27T13:38:11.899Z,304
2017-06-27T13:39:13.277Z,316
2017-06-27T13:40:14.643Z,324
2017-06-27T13:41:17.330Z,332
2017-06-27T13:42:18.722Z,344
2017-06-27T13:43:20.101Z,348
2017-06-27T13:44:21.480Z,356
2017-06-27T13:45:22.859Z,376
2017-06-27T13:46:24.237Z,404
2017-06-27T13:47:25.613Z,428
2017-06-27T13:48:27.027Z,460
2017-06-27T13:49:28.407Z,488
2017-06-27T13:50:29.789Z,512
2017-06-27T13:51:32.056Z,524
2017-06-27T13:52:33.457Z,532
2017-06-27T13:53:34.836Z,536
2017-06-27T13:54:36.209Z,552
2017-06-27T13:55:37.598Z,576
2017-06-27T13:56:38.974Z,600
2017-06-27T13:57:40.343Z,616
2017-06-27T13:58:41.717Z,596
2017-06-27T13:59:43.094Z,588
2017-06-27T14:00:44.473Z,596
2017-06-27T14:01:45.850Z,616
2017-06-27T14:02:47.227Z,640
2017-06-27T14:03:48.599Z,640
2017-06-27T14:04:49.976Z,640
2017-06-27T14:05:51.356Z,632
2017-06-27T14:06:52.735Z,588
2017-06-27T14:07:54.110Z,552
2017-06-27T14:08:55.487Z,508
2017-06-27T14:09:56.853Z,472
2017-06-27T14:10:58.231Z,440
2017-06-27T14:11:59.606Z,416
2017-06-27T14:13:01.510Z,404
2017-06-27T14:14:02.893Z,392
2017-06-27T14:15:04.267Z,376
2017-06-27T14:16:05.654Z,364
2017-06-27T14:17:07.037Z,352
2017-06-27T14:18:08.412Z,344
2017-06-27T14:19:09.786Z,356
2017-06-27T14:20:11.151Z,356
2017-06-27T14:21:12.696Z,348
2017-06-27T14:22:14.071Z,340
2017-06-27T14:23:15.449Z,336
2017-06-27T14:24:16.830Z,336
2017-06-27T14:25:18.927Z,332
2017-06-27T14:26:20.302Z,340
2017-06-27T14:27:21.682Z,344
2017-06-27T14:28:23.061Z,344
2017-06-27T14:29:24.445Z,356
2017-06-27T14:30:25.826Z,364
2017-06-27T14:31:27.201Z,372
2017-06-27T14:32:29.546Z,364
2017-06-27T14:33:32.661Z,344
2017-06-27T14:34:34.032Z,316
2017-06-27T14:35:35.434Z,300
2017-06-27T14:36:36.813Z,300
2017-06-27T14:37:38.190Z,300
2017-06-27T14:38:39.566Z,292
2017-06-27T14:39:40.953Z,276
2017-06-27T14:40:43.183Z,264
2017-06-27T14:41:44.564Z,264
2017-06-27T14:42:45.931Z,252
2017-06-27T14:43:47.320Z,236
2017-06-27T14:44:48.688Z,232
2017-06-27T14:45:50.069Z,232
2017-06-27T14:46:51.449Z,220
2017-06-27T14:47:52.833Z,216
2017-06-27T14:48:54.846Z,216
2017-06-27T14:49:56.221Z,220
2017-06-27T14:50:57.610Z,216
2017-06-27T14:51:58.987Z,216
2017-06-27T14:53:00.358Z,212
2017-06-27T14:54:01.738Z,208
2017-06-27T14:55:03.144Z,196
2017-06-27T14:56:04.511Z,184
2017-06-27T14:57:06.504Z,172
2017-06-27T14:58:07.896Z,164
2017-06-27T14:59:09.256Z,164
2017-06-27T15:00:10.638Z,168
2017-06-27T15:01:12.022Z,164
2017-06-27T15:02:13.399Z,164
2017-06-27T15:03:14.775Z,164
2017-06-27T15:04:16.150Z,164
2017-06-27T15:05:17.527Z,160
2017-06-27T15:06:18.904Z,160
2017-06-27T15:07:21.652Z,156
2017-06-27T15:08:23.919Z,152
2017-06-27T15:09:26.259Z,160
2017-06-27T15:10:27.633Z,172
2017-06-27T15:11:29.005Z,176
2017-06-27T15:12:30.393Z,180
2017-06-27T15:13:31.768Z,188
2017-06-27T15:14:34.062Z,204
2017-06-27T15:15:35.436Z,212
2017-06-27T15:16:36.819Z,212
2017-06-27T15:17:38.193Z,204
2017-06-27T15:18:39.570Z,200
2017-06-27T15:19:40.943Z,200
2017-06-27T15:20:42.328Z,196
2017-06-27T15:21:43.699Z,196
2017-06-27T15:22:45.074Z,188
2017-06-27T15:23:46.443Z,176
2017-06-27T15:24:47.819Z,168
2017-06-27T15:25:49.194Z,164
2017-06-27T15:26:50.570Z,160
2017-06-27T15:27:53.160Z,168
2017-06-27T15:28:54.526Z,192
2017-06-27T15:29:55.908Z,212
2017-06-27T15:30:57.284Z,216
2017-06-27T15:31:58.679Z,216
2017-06-27T15:33:00.053Z,228
2017-06-27T15:34:01.429Z,220
2017-06-27T15:35:03.368Z,204
2017-06-27T15:36:04.746Z,200
2017-06-27T15:37:06.118Z,212
2017-06-27T15:38:07.494Z,244
2017-06-27T15:39:08.870Z,104
2017-06-27T15:40:10.249Z,180
2017-06-27T15:41:11.657Z,168
2017-06-27T15:42:13.038Z,168
2017-06-27T15:43:14.419Z,144
2017-06-27T15:44:15.792Z,132
2017-06-27T15:45:17.168Z,148
2017-06-27T15:46:18.545Z,148
2017-06-27T15:47:19.969Z,148
2017-06-27T15:48:21.349Z,156
2017-06-27T15:49:22.717Z,172
2017-06-27T15:50:24.088Z,180
2017-06-27T15:51:26.380Z,184
2017-06-27T15:52:27.747Z,184
2017-06-27T15:53:29.123Z,184
2017-06-27T15:54:31.394Z,188
2017-06-27T15:55:33.728Z,176
2017-06-27T15:56:36.076Z,172
2017-06-27T15:57:39.207Z,160
2017-06-27T15:58:40.580Z,148
2017-06-27T15:59:41.947Z,148
2017-06-27T16:00:43.332Z,144
2017-06-27T16:01:45.651Z,136
2017-06-27T16:02:47.920Z,132
2017-06-27T16:03:49.295Z,136
2017-06-27T16:04:50.666Z,148
2017-06-27T16:05:52.719Z,160
2017-06-27T16:06:54.099Z,184
2017-06-27T16:07:55.474Z,232
2017-06-27T16:08:56.848Z,296
2017-06-27T16:09:58.227Z,288
2017-06-27T16:10:59.600Z,264
2017-06-27T16:12:00.973Z,264
2017-06-27T16:13:02.343Z,316
2017-06-27T16:14:03.720Z,376
2017-06-27T16:15:05.125Z,396
2017-06-27T16:16:06.524Z,344
2017-06-27T16:17:07.914Z,300
2017-06-27T16:18:09.292Z,280
2017-06-27T16:19:10.666Z,248
2017-06-27T16:20:12.039Z,232
2017-06-27T16:21:13.423Z,224
2017-06-27T16:22:14.795Z,204
2017-06-27T16:23:16.172Z,188
2017-06-27T16:24:17.553Z,176
2017-06-27T16:25:18.927Z,164
2017-06-27T16:26:20.303Z,164
2017-06-27T16:27:21.674Z,164
2017-06-27T16:28:23.056Z,164
2017-06-27T16:29:24.428Z,168
2017-06-27T16:30:25.806Z,176
2017-06-27T16:31:27.185Z,176
2017-06-27T16:32:28.558Z,184
2017-06-27T16:33:29.932Z,184
2017-06-27T16:34:31.306Z,180
2017-06-27T16:35:32.684Z,180
2017-06-27T16:36:34.056Z,176
2017-06-27T16:37:35.433Z,176
2017-06-27T16:38:36.804Z,176
2017-06-27T16:39:38.182Z,176
2017-06-27T16:40:39.551Z,172
2017-06-27T16:41:40.922Z,168
2017-06-27T16:42:42.307Z,160
2017-06-27T16:43:43.675Z,160
2017-06-27T16:44:45.058Z,164
2017-06-27T16:45:46.430Z,172
2017-06-27T16:46:47.810Z,192
2017-06-27T16:47:49.179Z,212
2017-06-27T16:48:50.557Z,240
2017-06-27T16:49:51.941Z,260
2017-06-27T16:50:54.009Z,272
2017-06-27T16:51:55.385Z,276
2017-06-27T16:52:56.770Z,268
2017-06-27T16:53:58.145Z,256
2017-06-27T16:54:59.521Z,236
2017-06-27T16:56:01.649Z,220
2017-06-27T16:57:03.024Z,212
2017-06-27T16:58:04.398Z,208
2017-06-27T16:59:05.791Z,196
2017-06-27T17:00:07.170Z,184
2017-06-27T17:01:08.545Z,168
2017-06-27T17:02:09.915Z,160
2017-06-27T17:03:11.292Z,156
2017-06-27T17:04:12.667Z,148
2017-06-27T17:05:14.041Z,148
2017-06-27T17:06:15.420Z,140
2017-06-27T17:07:16.796Z,136
2017-06-27T17:08:18.180Z,136
2017-06-27T17:09:19.571Z,128
2017-06-27T17:10:20.921Z,128
2017-06-27T17:11:22.299Z,124
2017-06-27T17:12:24.353Z,120
2017-06-27T17:13:25.723Z,120
2017-06-27T17:14:27.104Z,112
2017-06-27T17:15:28.479Z,108
2017-06-27T17:16:29.853Z,104
2017-06-27T17:17:31.224Z,96
2017-06-27T17:18:32.598Z,88
2017-06-27T17:19:33.976Z,84
2017-06-27T17:20:35.346Z,84
2017-06-27T17:21:36.717Z,80
2017-06-27T17:22:38.614Z,72
2017-06-27T17:23:39.439Z,72
2017-06-27T17:24:40.813Z,72
2017-06-27T17:25:42.184Z,68
2017-06-27T17:26:43.555Z,68
2017-06-27T17:27:44.941Z,64
2017-06-27T17:28:46.320Z,68
2017-06-27T17:29:47.687Z,64
2017-06-27T17:30:49.085Z,64
2017-06-27T17:31:50.461Z,60
2017-06-27T17:32:51.830Z,60
2017-06-27T17:33:53.209Z,60
2017-06-27T17:34:54.581Z,60
2017-06-27T17:35:55.956Z,52
2017-06-27T17:36:58.189Z,52
2017-06-27T17:37:59.568Z,52
2017-06-27T17:39:00.941Z,52
2017-06-27T17:40:02.329Z,48
2017-06-27T17:41:03.704Z,48
2017-06-27T17:42:05.125Z,52
2017-06-27T17:43:06.501Z,52
2017-06-27T17:44:09.331Z,52
2017-06-27T17:45:10.705Z,52
2017-06-27T17:46:12.076Z,56
2017-06-27T17:47:13.451Z,56
2017-06-27T17:48:15.767Z,60
2017-06-27T17:49:18.123Z,60
2017-06-27T17:50:18.466Z,64
2017-06-27T17:51:19.843Z,64
2017-06-27T17:52:21.208Z,72
2017-06-27T17:53:23.522Z,72
2017-06-27T17:54:24.890Z,84
2017-06-27T17:55:26.268Z,88
2017-06-27T17:56:27.677Z,88
2017-06-27T17:57:29.057Z,88
2017-06-27T17:58:30.433Z,84
2017-06-27T17:59:32.485Z,84
2017-06-27T18:00:33.865Z,80
2017-06-27T18:01:35.234Z,76
2017-06-27T18:02:36.603Z,72
2017-06-27T18:03:37.983Z,68
2017-06-27T18:04:39.365Z,64
2017-06-27T18:05:40.733Z,64
2017-06-27T18:06:42.106Z,64
2017-06-27T18:07:43.475Z,56
2017-06-27T18:08:44.851Z,60
2017-06-27T18:09:46.231Z,56
2017-06-27T18:10:47.606Z,52
2017-06-27T18:11:49.507Z,52
2017-06-27T18:12:50.884Z,44
2017-06-27T18:13:52.260Z,44
2017-06-27T18:14:53.630Z,40
2017-06-27T18:15:55.004Z,36
2017-06-27T18:16:56.376Z,40
2017-06-27T18:17:57.749Z,36
2017-06-27T18:18:59.127Z,32
2017-06-27T18:20:00.494Z,32
2017-06-27T18:21:01.866Z,28
2017-06-27T18:22:03.230Z,24
2017-06-27T18:23:04.607Z,24
2017-06-27T18:24:05.988Z,24
2017-06-27T18:25:07.355Z,24
2017-06-27T18:26:08.729Z,24
2017-06-27T18:27:10.633Z,20
2017-06-27T18:28:11.429Z,24
2017-06-27T18:29:12.808Z,24
2017-06-27T18:30:14.194Z,24
2017-06-27T18:31:15.566Z,28
2017-06-27T18:32:16.939Z,24
2017-06-27T18:33:18.316Z,24
2017-06-27T18:34:19.687Z,28
2017-06-27T18:35:21.063Z,28
2017-06-27T18:36:22.441Z,32
2017-06-27T18:37:23.817Z,28
2017-06-27T18:38:25.192Z,32
2017-06-27T18:39:26.570Z,32
2017-06-27T18:40:27.945Z,32
2017-06-27T18:41:29.325Z,36
2017-06-27T18:42:30.696Z,32
2017-06-27T18:43:32.077Z,36
2017-06-27T18:44:33.451Z,36
2017-06-27T18:45:34.826Z,36
2017-06-27T18:46:36.209Z,32
2017-06-27T18:47:37.584Z,32
2017-06-27T18:48:38.962Z,28
2017-06-27T18:49:40.331Z,32
2017-06-27T18:50:42.679Z,28
2017-06-27T18:51:44.056Z,28
2017-06-27T18:52:45.997Z,24
2017-06-27T18:53:47.366Z,28
2017-06-27T18:54:48.830Z,24
2017-06-27T18:55:50.227Z,28
2017-06-27T18:56:51.600Z,24
2017-06-27T18:57:53.196Z,24
2017-06-27T18:58:54.575Z,24
2017-06-27T18:59:55.978Z,24
2017-06-27T19:00:57.641Z,24
2017-06-27T19:01:59.293Z,28
2017-06-27T19:03:00.808Z,28
2017-06-27T19:04:02.481Z,28
2017-06-27T19:05:04.013Z,28
2017-06-27T19:06:05.472Z,28
2017-06-27T19:07:06.881Z,32
2017-06-27T19:08:08.272Z,32
2017-06-27T19:09:09.978Z,36
2017-06-27T19:10:11.379Z,32
2017-06-27T19:11:13.068Z,32
2017-06-27T19:12:14.720Z,32
2017-06-27T19:13:16.247Z,32
2017-06-27T19:14:18.753Z,32
2017-06-27T19:15:20.427Z,32
2017-06-27T19:16:22.158Z,28
2017-06-27T19:17:23.899Z,28
2017-06-27T19:18:25.611Z,28
2017-06-27T19:19:27.254Z,24
2017-06-27T19:20:28.932Z,24
2017-06-27T19:21:30.546Z,24
2017-06-27T19:22:32.075Z,20
2017-06-27T19:23:33.695Z,20
2017-06-27T19:24:35.363Z,20
2017-06-27T19:25:37.855Z,20
2017-06-27T19:26:39.330Z,16
2017-06-27T19:27:40.948Z,16
2017-06-27T19:28:42.591Z,16
2017-06-27T19:29:44.166Z,12
2017-06-27T19:30:45.906Z,12
2017-06-27T19:31:47.555Z,12
2017-06-27T19:32:49.060Z,12
2017-06-27T19:33:50.630Z,12
2017-06-27T19:34:52.332Z,12
2017-06-27T19:35:54.057Z,12
2017-06-27T19:36:55.751Z,8
2017-06-27T19:37:57.411Z,8
2017-06-27T19:38:59.578Z,8
2017-06-27T19:40:00.954Z,8
2017-06-27T19:41:02.343Z,4
2017-06-27T19:42:03.757Z,4
2017-06-27T19:43:05.174Z,4
2017-06-27T19:44:06.857Z,8
2017-06-27T19:45:08.439Z,4
2017-06-27T19:46:10.079Z,8
2017-06-27T19:47:12.163Z,4
2017-06-27T19:48:13.850Z,4
2017-06-27T19:49:15.476Z,0
2017-06-27T19:50:17.174Z,4
2017-06-27T19:51:18.855Z,4
2017-06-27T19:52:20.500Z,4
2017-06-27T19:53:22.193Z,0
2017-06-27T19:54:23.869Z,0
2017-06-27T19:55:25.547Z,0
2017-06-27T19:56:27.251Z,0
2017-06-27T19:57:29.793Z,0
2017-06-27T19:58:31.493Z,0
2017-06-27T19:59:33.230Z,0
2017-06-27T20:00:34.918Z,0
2017-06-27T20:01:36.607Z,0
2017-06-27T20:02:38.271Z,0
2017-06-27T20:03:39.865Z,0
2017-06-27T20:04:41.576Z,0
2017-06-27T20:05:43.207Z,0
2017-06-27T20:06:44.872Z,0
2017-06-27T20:07:46.368Z,0
2017-06-27T20:08:48.062Z,0
2017-06-27T20:09:49.640Z,0
2017-06-27T20:10:51.334Z,0
2017-06-27T20:11:53.014Z,0
2017-06-27T20:12:54.555Z,0
2017-06-27T20:13:56.163Z,0
2017-06-27T20:14:57.900Z,0
2017-06-27T20:15:59.302Z,0
2017-06-27T20:17:00.836Z,0
2017-06-27T20:18:02.300Z,0
2017-06-27T20:19:04.736Z,0
2017-06-27T20:20:06.522Z,0
2017-06-27T20:21:08.213Z,0
2017-06-27T20:22:09.841Z,0
2017-06-27T20:23:11.500Z,0
2017-06-27T20:24:12.896Z,0
2017-06-27T20:25:14.539Z,0
2017-06-27T20:26:15.934Z,0
2017-06-27T20:27:17.313Z,0
2017-06-27T20:28:19.845Z,0
2017-06-27T20:29:21.527Z,0
2017-06-27T20:30:23.190Z,0
2017-06-27T20:31:25.076Z,0
2017-06-27T20:32:26.478Z,0
2017-06-27T20:33:28.208Z,0
2017-06-27T20:34:29.586Z,0
2017-06-27T20:35:31.308Z,0
2017-06-27T20:36:32.980Z,0
2017-06-27T20:37:34.366Z,0
2017-06-27T20:38:36.555Z,0
2017-06-27T20:39:38.224Z,0
2017-06-27T20:40:39.899Z,0
2017-06-27T20:41:42.446Z,0
2017-06-27T20:42:44.122Z,0
2017-06-27T20:43:45.510Z,0
2017-06-27T20:44:47.562Z,0
2017-06-27T20:45:48.939Z,0
2017-06-27T20:46:50.322Z,0
2017-06-27T20:47:51.739Z,0
2017-06-27T20:48:53.793Z,0
2017-06-27T20:49:55.193Z,0
2017-06-27T20:50:56.569Z,0
2017-06-27T20:51:58.544Z,0
2017-06-27T20:52:59.918Z,0
2017-06-27T20:54:01.296Z,0
2017-06-27T20:55:02.664Z,0
2017-06-27T20:56:04.040Z,0
2017-06-27T20:57:05.419Z,0
2017-06-27T20:58:06.818Z,0
2017-06-27T20:59:08.204Z,0
2017-06-27T21:00:09.573Z,0
2017-06-27T21:01:10.941Z,0
2017-06-27T21:02:12.317Z,0
2017-06-27T21:03:13.691Z,0
2017-06-27T21:04:15.060Z,0
2017-06-27T21:05:16.432Z,0
2017-06-27T21:06:17.802Z,0
2017-06-27T21:07:19.177Z,0
2017-06-27T21:08:20.547Z,0
2017-06-27T21:09:21.917Z,0
2017-06-27T21:10:23.293Z,0
2017-06-27T21:11:24.661Z,0
2017-06-27T21:12:26.026Z,0
2017-06-27T21:13:27.412Z,0
2017-06-27T21:14:28.784Z,0
2017-06-27T21:15:30.702Z,0
2017-06-27T21:16:31.471Z,0
2017-06-27T21:17:32.843Z,0
2017-06-27T21:18:34.223Z,0
2017-06-27T21:19:35.613Z,0
2017-06-27T21:20:36.984Z,0
2017-06-27T21:21:38.352Z,0
2017-06-27T21:22:39.722Z,0
2017-06-27T21:23:41.095Z,0
2017-06-27T21:24:42.478Z,0
2017-06-27T21:25:43.848Z,0
2017-06-27T21:26:45.217Z,0
2017-06-27T21:27:46.583Z,0
2017-06-27T21:28:47.962Z,0
2017-06-27T21:29:49.329Z,0
2017-06-27T21:30:50.699Z,0
2017-06-27T21:31:52.110Z,0
2017-06-27T21:32:53.478Z,0
2017-06-27T21:33:54.854Z,0
2017-06-27T21:34:56.219Z,0
2017-06-27T21:35:57.590Z,0
2017-06-27T21:36:58.980Z,0
2017-06-27T21:38:00.349Z,0
2017-06-27T21:39:01.723Z,0
2017-06-27T21:40:03.092Z,0
2017-06-27T21:41:04.465Z,0
2017-06-27T21:42:05.861Z,0
2017-06-27T21:43:07.256Z,0
2017-06-27T21:44:08.624Z,0
2017-06-27T21:45:09.999Z,0
2017-06-27T21:46:11.405Z,0
2017-06-27T21:47:12.746Z,0
2017-06-27T21:48:14.112Z,0
2017-06-27T21:49:15.487Z,0
2017-06-27T21:50:16.858Z,0
2017-06-27T21:51:18.226Z,0
2017-06-27T21:52:19.601Z,0
2017-06-27T21:53:20.972Z,0
2017-06-27T21:54:22.372Z,0
2017-06-27T21:55:23.708Z,0